Observation data for Jayton on 05/24/2020      Previous  Date  Next       Current Mesonet Observations  Soil Data  Daily Summary Page  Observations in Plain Language
KJTS 240500Z 09012KT 19/14 A2983 RMK A01 T01860142  RH  079%=      5-min Rain = 0
KJTS 240505Z 08012KT 19/14 A2983 RMK A01 T01860142  RH  079%=      5-min Rain = 0
KJTS 240510Z 09010KT 19/14 A2983 RMK A01 T01860141  RH  078%=      5-min Rain = 0
KJTS 240515Z 09010KT 19/14 A2983 RMK A01 T01860141  RH  078%=      5-min Rain = 0
KJTS 240520Z 08009KT 19/14 A2982 RMK A01 T01860140  RH  077%=      5-min Rain = 0
KJTS 240525Z 09009KT 19/14 A2982 RMK A01 T01870138  RH  076%=      5-min Rain = 0
KJTS 240530Z 10008KT 19/14 A2982 RMK A01 T01870139  RH  077%=      5-min Rain = 0
KJTS 240535Z 12008KT 19/14 A2982 RMK A01 T01850139  RH  077%=      5-min Rain = 0
KJTS 240540Z 12007KT 18/14 A2982 RMK A01 T01840138  RH  078%=      5-min Rain = 0
KJTS 240545Z 10009KT 18/14 A2982 RMK A01 T01820138  RH  079%=      5-min Rain = 0
KJTS 240550Z 09010KT 18/14 A2981 RMK A01 T01830137  RH  077%=      5-min Rain = 0
KJTS 240555Z 08009KT 19/13 A2981 RMK A01 T01870134  RH  074%=      5-min Rain = 0
KJTS 240600Z 08008KT 19/13 A2981 RMK A01 T01870134  RH  074%=      5-min Rain = 0
KJTS 240605Z 09008KT 19/13 A2982 RMK A01 T01900132  RH  072%=      5-min Rain = 0
KJTS 240610Z 09006KT 19/13 A2982 RMK A01 T01880133  RH  073%=      5-min Rain = 0
KJTS 240615Z 10005KT 19/13 A2982 RMK A01 T01870133  RH  074%=      5-min Rain = 0
KJTS 240620Z 11004KT 19/13 A2982 RMK A01 T01860134  RH  075%=      5-min Rain = 0
KJTS 240625Z 10005G10KT 19/13 A2981 RMK A01 T01850133  RH  074%=      5-min Rain = 0
KJTS 240630Z 11006KT 19/13 A2982 RMK A01 T01890130  RH  072%=      5-min Rain = 0
KJTS 240635Z 13005KT 19/13 A2982 RMK A01 T01910131  RH  071%=      5-min Rain = 0
KJTS 240640Z 09005KT 19/13 A2982 RMK A01 T01890129  RH  071%=      5-min Rain = 0
KJTS 240645Z 11006KT 19/13 A2982 RMK A01 T01910129  RH  070%=      5-min Rain = 0
KJTS 240650Z 16003KT 19/13 A2982 RMK A01 T01890130  RH  071%=      5-min Rain = 0
KJTS 240655Z 13002KT 19/13 A2983 RMK A01 T01870130  RH  072%=      5-min Rain = 0
KJTS 240700Z 13007KT 19/13 A2984 RMK A01 T01850130  RH  073%=      5-min Rain = 0
KJTS 240705Z 15006KT 18/13 A2984 RMK A01 T01840131  RH  074%=      5-min Rain = 0
KJTS 240710Z 13008KT 18/13 A2985 RMK A01 T01840130  RH  074%=      5-min Rain = 0
KJTS 240715Z 14008KT 19/13 A2984 RMK A01 T01850131  RH  074%=      5-min Rain = 0
KJTS 240720Z 14007KT 18/13 A2984 RMK A01 T01830132  RH  075%=      5-min Rain = 0
KJTS 240725Z 15008KT 18/13 A2984 RMK A01 T01830133  RH  076%=      5-min Rain = 0
KJTS 240730Z 14009KT 18/13 A2984 RMK A01 T01830133  RH  076%=      5-min Rain = 0
KJTS 240735Z 15009KT 18/13 A2984 RMK A01 T01820134  RH  077%=      5-min Rain = 0
KJTS 240740Z 14008KT 18/14 A2983 RMK A01 T01800135  RH  078%=      5-min Rain = 0
KJTS 240745Z 14007KT 18/14 A2983 RMK A01 T01790135  RH  079%=      5-min Rain = 0
KJTS 240750Z 16007KT 18/14 A2983 RMK A01 T01780136  RH  080%=      5-min Rain = 0
KJTS 240755Z 15006KT 18/14 A2983 RMK A01 T01770137  RH  081%=      5-min Rain = 0
KJTS 240800Z 17007KT 18/14 A2983 RMK A01 T01760137  RH  081%=      5-min Rain = 0
KJTS 240805Z 17006KT 17/14 A2983 RMK A01 T01740138  RH  083%=      5-min Rain = 0
KJTS 240810Z 16006KT 17/14 A2983 RMK A01 T01740139  RH  083%=      5-min Rain = 0
KJTS 240815Z 17007KT 17/14 A2983 RMK A01 T01730139  RH  084%=      5-min Rain = 0
KJTS 240820Z 17006KT 17/14 A2983 RMK A01 T01730139  RH  084%=      5-min Rain = 0
KJTS 240825Z 17005KT 17/14 A2983 RMK A01 T01720140  RH  085%=      5-min Rain = 0
KJTS 240830Z 17005KT 17/14 A2983 RMK A01 T01720140  RH  085%=      5-min Rain = 0
KJTS 240835Z 17006KT 17/14 A2982 RMK A01 T01720140  RH  085%=      5-min Rain = 0
KJTS 240840Z 17006KT 17/14 A2982 RMK A01 T01720140  RH  085%=      5-min Rain = 0
KJTS 240845Z 16006KT 17/14 A2982 RMK A01 T01720141  RH  086%=      5-min Rain = 0
KJTS 240850Z 17006KT 17/14 A2982 RMK A01 T01710141  RH  086%=      5-min Rain = 0
KJTS 240855Z 17006KT 17/14 A2982 RMK A01 T01710142  RH  087%=      5-min Rain = 0
KJTS 240900Z 17006KT 17/14 A2982 RMK A01 T01720143  RH  087%=      5-min Rain = 0
KJTS 240905Z 17006KT 17/14 A2983 RMK A01 T01710143  RH  087%=      5-min Rain = 0
KJTS 240910Z 18005KT 17/14 A2983 RMK A01 T01700144  RH  088%=      5-min Rain = 0
KJTS 240915Z 20004KT 17/14 A2983 RMK A01 T01690144  RH  089%=      5-min Rain = 0
KJTS 240920Z 20004KT 17/14 A2983 RMK A01 T01690144  RH  089%=      5-min Rain = 0
KJTS 240925Z 18004KT 17/15 A2983 RMK A01 T01700145  RH  089%=      5-min Rain = 0
KJTS 240930Z 18005KT 17/15 A2983 RMK A01 T01690145  RH  090%=      5-min Rain = 0
KJTS 240935Z 17005KT 17/15 A2984 RMK A01 T01670145  RH  091%=      5-min Rain = 0
KJTS 240940Z 18004KT 17/15 A2984 RMK A01 T01660145  RH  091%=      5-min Rain = 0
KJTS 240945Z 17005KT 17/15 A2984 RMK A01 T01650145  RH  092%=      5-min Rain = 0
KJTS 240950Z 17005KT 16/15 A2984 RMK A01 T01640145  RH  093%=      5-min Rain = 0
KJTS 240955Z 17005KT 16/15 A2984 RMK A01 T01640145  RH  093%=      5-min Rain = 0
KJTS 241000Z 17004KT 16/15 A2983 RMK A01 T01640145  RH  093%=      5-min Rain = 0
KJTS 241005Z 17003KT 16/15 A2983 RMK A01 T01640145  RH  093%=      5-min Rain = 0
KJTS 241010Z 17003KT 16/14 A2983 RMK A01 T01630144  RH  093%=      5-min Rain = 0
KJTS 241015Z 19003KT 16/15 A2983 RMK A01 T01630145  RH  093%=      5-min Rain = 0
KJTS 241020Z 17002KT 16/15 A2983 RMK A01 T01630145  RH  093%=      5-min Rain = 0
KJTS 241025Z 17001KT 16/14 A2983 RMK A01 T01620144  RH  092%=      5-min Rain = 0
KJTS 241030Z 17001KT 16/14 A2983 RMK A01 T01620143  RH  092%=      5-min Rain = 0
KJTS 241035Z 17001KT 16/14 A2983 RMK A01 T01610143  RH  093%=      5-min Rain = 0
KJTS 241040Z 17002KT 16/14 A2983 RMK A01 T01610144  RH  094%=      5-min Rain = 0
KJTS 241045Z 17002KT 16/14 A2983 RMK A01 T01600143  RH  094%=      5-min Rain = 0
KJTS 241050Z 18002KT 16/14 A2983 RMK A01 T01610143  RH  093%=      5-min Rain = 0
KJTS 241055Z 19002KT 16/14 A2982 RMK A01 T01620143  RH  092%=      5-min Rain = 0
KJTS 241100Z 18002KT 16/14 A2983 RMK A01 T01620143  RH  092%=      5-min Rain = 0
KJTS 241105Z 20003KT 16/14 A2983 RMK A01 T01640143  RH  092%=      5-min Rain = 0
KJTS 241110Z 18004KT 16/14 A2983 RMK A01 T01630143  RH  092%=      5-min Rain = 0
KJTS 241115Z 17004KT 16/14 A2983 RMK A01 T01610141  RH  092%=      5-min Rain = 0
KJTS 241120Z 17003KT 16/14 A2983 RMK A01 T01600142  RH  093%=      5-min Rain = 0
KJTS 241125Z 18004KT 16/14 A2983 RMK A01 T01600142  RH  093%=      5-min Rain = 0
KJTS 241130Z 18004KT 16/14 A2983 RMK A01 T01600142  RH  093%=      5-min Rain = 0
KJTS 241135Z 17004KT 16/14 A2983 RMK A01 T01590142  RH  093%=      5-min Rain = 0
KJTS 241140Z 18004KT 16/14 A2983 RMK A01 T01580141  RH  094%=      5-min Rain = 0
KJTS 241145Z 19005KT 16/14 A2983 RMK A01 T01590142  RH  094%=      5-min Rain = 0
KJTS 241150Z 19005KT 16/14 A2984 RMK A01 T01610143  RH  093%=      5-min Rain = 0
KJTS 241155Z 19004KT 16/14 A2984 RMK A01 T01630142  RH  091%=      5-min Rain = 0
KJTS 241200Z 19005KT 16/14 A2984 RMK A01 T01630142  RH  091%=      5-min Rain = 0
KJTS 241205Z 19005KT 16/14 A2984 RMK A01 T01620142  RH  091%=      5-min Rain = 0
KJTS 241210Z 19005KT 16/14 A2984 RMK A01 T01620142  RH  092%=      5-min Rain = 0
KJTS 241215Z 19004KT 16/14 A2984 RMK A01 T01630143  RH  091%=      5-min Rain = 0
KJTS 241220Z 21004KT 16/14 A2985 RMK A01 T01630144  RH  092%=      5-min Rain = 0
KJTS 241225Z 19004KT 17/14 A2984 RMK A01 T01650144  RH  091%=      5-min Rain = 0
KJTS 241230Z 20003KT 17/15 A2984 RMK A01 T01690146  RH  090%=      5-min Rain = 0
KJTS 241235Z 20004KT 17/15 A2984 RMK A01 T01710147  RH  089%=      5-min Rain = 0
KJTS 241240Z 21004KT 18/15 A2984 RMK A01 T01750148  RH  088%=      5-min Rain = 0
KJTS 241245Z 20004KT 18/15 A2984 RMK A01 T01780150  RH  087%=      5-min Rain = 0
KJTS 241250Z 20004KT 18/15 A2984 RMK A01 T01810151  RH  086%=      5-min Rain = 0
KJTS 241255Z 19005KT 19/15 A2984 RMK A01 T01850151  RH  084%=      5-min Rain = 0
KJTS 241300Z 18005KT 19/15 A2984 RMK A01 T01870152  RH  084%=      5-min Rain = 0
KJTS 241305Z 16006KT 19/15 A2984 RMK A01 T01890154  RH  084%=      5-min Rain = 0
KJTS 241310Z 16007KT 19/16 A2984 RMK A01 T01910156  RH  084%=      5-min Rain = 0
KJTS 241315Z 16008KT 19/16 A2984 RMK A01 T01940156  RH  082%=      5-min Rain = 0
KJTS 241320Z 16008G13KT 20/16 A2984 RMK A01 T01980157  RH  081%=      5-min Rain = 0
KJTS 241325Z 15010KT 20/16 A2985 RMK A01 T01990156  RH  080%=      5-min Rain = 0
KJTS 241330Z 16008KT 20/16 A2985 RMK A01 T02010158  RH  080%=      5-min Rain = 0
KJTS 241335Z 16009KT 20/16 A2985 RMK A01 T02040159  RH  079%=      5-min Rain = 0
KJTS 241340Z 16009KT 21/16 A2985 RMK A01 T02050159  RH  078%=      5-min Rain = 0
KJTS 241345Z 15008KT 21/16 A2985 RMK A01 T02080161  RH  078%=      5-min Rain = 0
KJTS 241350Z 15008KT 21/16 A2985 RMK A01 T02110161  RH  077%=      5-min Rain = 0
KJTS 241355Z 14007KT 21/16 A2985 RMK A01 T02120161  RH  076%=      5-min Rain = 0
KJTS 241400Z 14007KT 21/16 A2985 RMK A01 T02140161  RH  076%=      5-min Rain = 0
KJTS 241405Z 14007KT 22/16 A2985 RMK A01 T02160162  RH  075%=      5-min Rain = 0
KJTS 241410Z 14007KT 22/16 A2985 RMK A01 T02200164  RH  074%=      5-min Rain = 0
KJTS 241415Z 14008KT 22/16 A2985 RMK A01 T02200161  RH  073%=      5-min Rain = 0
KJTS 241420Z 14009KT 22/16 A2985 RMK A01 T02210161  RH  072%=      5-min Rain = 0
KJTS 241425Z 15007KT 22/16 A2985 RMK A01 T02240163  RH  072%=      5-min Rain = 0
KJTS 241430Z 16007G12KT 23/16 A2985 RMK A01 T02280164  RH  071%=      5-min Rain = 0
KJTS 241435Z 15008KT 23/16 A2985 RMK A01 T02290161  RH  069%=      5-min Rain = 0
KJTS 241440Z 15009KT 23/16 A2985 RMK A01 T02300162  RH  069%=      5-min Rain = 0
KJTS 241445Z 16009KT 23/16 A2985 RMK A01 T02310161  RH  068%=      5-min Rain = 0
KJTS 241450Z 17010KT 23/16 A2985 RMK A01 T02320158  RH  066%=      5-min Rain = 0
KJTS 241455Z 16010KT 24/16 A2985 RMK A01 T02360159  RH  065%=      5-min Rain = 0
KJTS 241500Z 16008KT 24/16 A2985 RMK A01 T02370160  RH  065%=      5-min Rain = 0
KJTS 241505Z 16008KT 24/16 A2985 RMK A01 T02400164  RH  066%=      5-min Rain = 0
KJTS 241510Z 16010KT 24/16 A2984 RMK A01 T02420162  RH  064%=      5-min Rain = 0
KJTS 241515Z 15012G17KT 24/16 A2984 RMK A01 T02420160  RH  063%=      5-min Rain = 0
KJTS 241520Z 17010KT 25/16 A2984 RMK A01 T02460161  RH  062%=      5-min Rain = 0
KJTS 241525Z 16011G16KT 25/16 A2984 RMK A01 T02480159  RH  060%=      5-min Rain = 0
KJTS 241530Z 17012KT 25/16 A2983 RMK A01 T02510157  RH  058%=      5-min Rain = 0
KJTS 241535Z 17012KT 25/16 A2983 RMK A01 T02520155  RH  058%=      5-min Rain = 0
KJTS 241540Z 16014G19KT 25/16 A2983 RMK A01 T02530155  RH  057%=      5-min Rain = 0
KJTS 241545Z 18015G21KT 26/15 A2983 RMK A01 T02560154  RH  056%=      5-min Rain = 0
KJTS 241550Z 17015G22KT 26/16 A2982 RMK A01 T02560156  RH  057%=      5-min Rain = 0
KJTS 241555Z 16013G18KT 26/16 A2982 RMK A01 T02560158  RH  057%=      5-min Rain = 0
KJTS 241600Z 17013G18KT 26/16 A2982 RMK A01 T02590160  RH  057%=      5-min Rain = 0
KJTS 241605Z 17015G21KT 26/16 A2982 RMK A01 T02620161  RH  056%=      5-min Rain = 0
KJTS 241610Z 16013KT 26/16 A2982 RMK A01 T02630163  RH  057%=      5-min Rain = 0
KJTS 241615Z 17012G19KT 27/17 A2982 RMK A01 T02670165  RH  056%=      5-min Rain = 0
KJTS 241620Z 17012G18KT 27/17 A2982 RMK A01 T02720167  RH  055%=      5-min Rain = 0
KJTS 241625Z 17011G16KT 27/17 A2982 RMK A01 T02740166  RH  054%=      5-min Rain = 0
KJTS 241630Z 18015G20KT 27/16 A2982 RMK A01 T02730162  RH  053%=      5-min Rain = 0
KJTS 241635Z 18014G19KT 28/16 A2982 RMK A01 T02750164  RH  053%=      5-min Rain = 0
KJTS 241640Z 18015G21KT 28/17 A2982 RMK A01 T02770166  RH  053%=      5-min Rain = 0
KJTS 241645Z 17013G20KT 28/17 A2982 RMK A01 T02790171  RH  054%=      5-min Rain = 0
KJTS 241650Z 17014G20KT 28/17 A2982 RMK A01 T02770170  RH  055%=      5-min Rain = 0
KJTS 241655Z 17016G23KT 28/17 A2982 RMK A01 T02760169  RH  055%=      5-min Rain = 0
KJTS 241700Z 18016G22KT 28/17 A2982 RMK A01 T02780170  RH  054%=      5-min Rain = 0
KJTS 241705Z 17015G22KT 28/17 A2982 RMK A01 T02810174  RH  055%=      5-min Rain = 0
KJTS 241710Z 18015G20KT 28/17 A2982 RMK A01 T02800172  RH  055%=      5-min Rain = 0
KJTS 241715Z 17013G19KT 28/18 A2982 RMK A01 T02830176  RH  055%=      5-min Rain = 0
KJTS 241720Z 18016G24KT 28/18 A2982 RMK A01 T02820175  RH  055%=      5-min Rain = 0
KJTS 241725Z 18016G22KT 28/18 A2982 RMK A01 T02820176  RH  055%=      5-min Rain = 0
KJTS 241730Z 17015G23KT 29/18 A2981 RMK A01 T02880178  RH  054%=      5-min Rain = 0
KJTS 241735Z 17016G25KT 28/18 A2981 RMK A01 T02840176  RH  055%=      5-min Rain = 0
KJTS 241740Z 17015G21KT 29/18 A2981 RMK A01 T02870178  RH  055%=      5-min Rain = 0
KJTS 241745Z 18014G20KT 29/18 A2981 RMK A01 T02910179  RH  054%=      5-min Rain = 0
KJTS 241750Z 17015G23KT 29/18 A298 RMK A01 T02880177  RH  054%=      5-min Rain = 0
KJTS 241755Z 17015G23KT 29/18 A298 RMK A01 T02890178  RH  054%=      5-min Rain = 0
KJTS 241800Z 17015G20KT 29/18 A298 RMK A01 T02920179  RH  053%=      5-min Rain = 0
KJTS 241805Z 17013G20KT 29/18 A2979 RMK A01 T02910181  RH  054%=      5-min Rain = 0
KJTS 241810Z 17013G19KT 29/18 A2979 RMK A01 T02930181  RH  054%=      5-min Rain = 0
KJTS 241815Z 18013G19KT 29/18 A2979 RMK A01 T02930180  RH  053%=      5-min Rain = 0
KJTS 241820Z 19015G21KT 30/18 A2979 RMK A01 T02990179  RH  051%=      5-min Rain = 0
KJTS 241825Z 19012G20KT 30/18 A2979 RMK A01 T03010180  RH  051%=      5-min Rain = 0
KJTS 241830Z 16013G19KT 30/19 A2978 RMK A01 T03020185  RH  052%=      5-min Rain = 0
KJTS 241835Z 17012G19KT 30/18 A2978 RMK A01 T03030184  RH  052%=      5-min Rain = 0
KJTS 241840Z 16013G18KT 30/18 A2978 RMK A01 T02980183  RH  053%=      5-min Rain = 0
KJTS 241845Z 17014G20KT 30/18 A2978 RMK A01 T02990184  RH  053%=      5-min Rain = 0
KJTS 241850Z 19013G19KT 30/18 A2977 RMK A01 T03040182  RH  051%=      5-min Rain = 0
KJTS 241855Z 16012G17KT 30/19 A2977 RMK A01 T03020187  RH  053%=      5-min Rain = 0
KJTS 241900Z 16013G18KT 30/19 A2977 RMK A01 T03000186  RH  053%=      5-min Rain = 0
KJTS 241905Z 16013G18KT 30/19 A2977 RMK A01 T03010188  RH  054%=      5-min Rain = 0
KJTS 241910Z 18012KT 31/18 A2977 RMK A01 T03070184  RH  050%=      5-min Rain = 0
KJTS 241915Z 18011G19KT 31/18 A2976 RMK A01 T03060184  RH  051%=      5-min Rain = 0
KJTS 241920Z 17012G19KT 30/19 A2976 RMK A01 T03030186  RH  052%=      5-min Rain = 0
KJTS 241925Z 16010KT 30/19 A2976 RMK A01 T03040190  RH  054%=      5-min Rain = 0
KJTS 241930Z 18011G18KT 31/19 A2976 RMK A01 T03060187  RH  052%=      5-min Rain = 0
KJTS 241935Z 16012KT 30/19 A2976 RMK A01 T03000186  RH  053%=      5-min Rain = 0
KJTS 241940Z 18011G17KT 31/19 A2975 RMK A01 T03080186  RH  051%=      5-min Rain = 0
KJTS 241945Z 17010G16KT 31/19 A2975 RMK A01 T03100190  RH  051%=      5-min Rain = 0
KJTS 241950Z 17010G17KT 31/19 A2975 RMK A01 T03080189  RH  052%=      5-min Rain = 0
KJTS 241955Z 17009G15KT 31/19 A2975 RMK A01 T03110187  RH  050%=      5-min Rain = 0
KJTS 242000Z 16011G19KT 31/18 A2975 RMK A01 T03100184  RH  050%=      5-min Rain = 0
KJTS 242005Z 19010KT 31/18 A2975 RMK A01 T03130180  RH  048%=      5-min Rain = 0
KJTS 242010Z 18010G16KT 31/18 A2974 RMK A01 T03120181  RH  048%=      5-min Rain = 0
KJTS 242015Z 18011G16KT 31/18 A2974 RMK A01 T03140179  RH  047%=      5-min Rain = 0
KJTS 242020Z 20011KT 33/18 A2974 RMK A01 T03250179  RH  044%=      5-min Rain = 0
KJTS 242025Z 19009KT 32/17 A2973 RMK A01 T03180174  RH  044%=      5-min Rain = 0
KJTS 242030Z 19012G18KT 32/18 A2973 RMK A01 T03240176  RH  044%=      5-min Rain = 0
KJTS 242035Z 18010G15KT 32/18 A2973 RMK A01 T03190177  RH  045%=      5-min Rain = 0
KJTS 242040Z 19009KT 32/18 A2973 RMK A01 T03210175  RH  044%=      5-min Rain = 0
KJTS 242045Z 18011G16KT 32/17 A2972 RMK A01 T03200174  RH  044%=      5-min Rain = 0
KJTS 242050Z 19011KT 32/17 A2972 RMK A01 T03200173  RH  044%=      5-min Rain = 0
KJTS 242055Z 19012KT 32/17 A2972 RMK A01 T03200172  RH  043%=      5-min Rain = 0
KJTS 242100Z 20010G15KT 32/17 A2972 RMK A01 T03170171  RH  044%=      5-min Rain = 0
KJTS 242105Z 18009G14KT 33/17 A2971 RMK A01 T03250174  RH  043%=      5-min Rain = 0
KJTS 242110Z 18009G14KT 33/18 A2971 RMK A01 T03250176  RH  043%=      5-min Rain = 0
KJTS 242115Z 18009G14KT 33/18 A2971 RMK A01 T03270175  RH  043%=      5-min Rain = 0
KJTS 242120Z 19009G14KT 32/17 A297 RMK A01 T03220173  RH  043%=      5-min Rain = 0
KJTS 242125Z 18007KT 33/18 A297 RMK A01 T03270176  RH  043%=      5-min Rain = 0
KJTS 242130Z 16009KT 33/18 A2969 RMK A01 T03260177  RH  043%=      5-min Rain = 0
KJTS 242135Z 14009KT 33/18 A2969 RMK A01 T03250179  RH  044%=      5-min Rain = 0
KJTS 242140Z 14009KT 32/18 A2969 RMK A01 T03240179  RH  044%=      5-min Rain = 0
KJTS 242145Z 16010G15KT 32/18 A2968 RMK A01 T03240178  RH  044%=      5-min Rain = 0
KJTS 242150Z 16007KT 32/18 A2968 RMK A01 T03150176  RH  046%=      5-min Rain = 0
KJTS 242155Z 16008KT 32/18 A2968 RMK A01 T03230178  RH  044%=      5-min Rain = 0
KJTS 242200Z 18008G13KT 33/18 A2967 RMK A01 T03280176  RH  043%=      5-min Rain = 0
KJTS 242205Z 16007KT 33/18 A2967 RMK A01 T03290179  RH  043%=      5-min Rain = 0
KJTS 242210Z 14008KT 33/18 A2967 RMK A01 T03260179  RH  044%=      5-min Rain = 0
KJTS 242215Z 15008KT 32/18 A2966 RMK A01 T03170176  RH  045%=      5-min Rain = 0
KJTS 242220Z 15007KT 32/18 A2966 RMK A01 T03210178  RH  045%=      5-min Rain = 0
KJTS 242225Z 17008KT 33/18 A2966 RMK A01 T03260177  RH  044%=      5-min Rain = 0
KJTS 242230Z 15009G14KT 33/18 A2966 RMK A01 T03270182  RH  044%=      5-min Rain = 0
KJTS 242235Z 14008KT 32/18 A2966 RMK A01 T03240176  RH  044%=      5-min Rain = 0
KJTS 242240Z 12008KT 32/18 A2966 RMK A01 T03240177  RH  044%=      5-min Rain = 0
KJTS 242245Z 16009KT 33/18 A2966 RMK A01 T03250176  RH  043%=      5-min Rain = 0
KJTS 242250Z 16006KT 33/18 A2965 RMK A01 T03260177  RH  043%=      5-min Rain = 0
KJTS 242255Z 14009KT 32/18 A2965 RMK A01 T03240179  RH  044%=      5-min Rain = 0
KJTS 242300Z 14009KT 32/17 A2964 RMK A01 T03190174  RH  044%=      5-min Rain = 0
KJTS 242305Z 14008KT 31/17 A2964 RMK A01 T03140174  RH  046%=      5-min Rain = 0
KJTS 242310Z 13008G13KT 31/17 A2964 RMK A01 T03110170  RH  045%=      5-min Rain = 0
KJTS 242315Z 14007KT 31/17 A2964 RMK A01 T03080173  RH  047%=      5-min Rain = 0
KJTS 242320Z 13007KT 31/18 A2964 RMK A01 T03060178  RH  049%=      5-min Rain = 0
KJTS 242325Z 13008G14KT 31/18 A2963 RMK A01 T03050181  RH  050%=      5-min Rain = 0
KJTS 242330Z 13010KT 30/18 A2963 RMK A01 T03030178  RH  050%=      5-min Rain = 0
KJTS 242335Z 12010KT 30/18 A2962 RMK A01 T03020176  RH  050%=      5-min Rain = 0
KJTS 242340Z 13010KT 30/18 A2962 RMK A01 T03000176  RH  050%=      5-min Rain = 0
KJTS 242345Z 12009KT 30/18 A2962 RMK A01 T02970177  RH  051%=      5-min Rain = 0
KJTS 242350Z 12008KT 29/18 A2962 RMK A01 T02940178  RH  052%=      5-min Rain = 0
KJTS 242355Z 12010KT 29/18 A2962 RMK A01 T02920176  RH  052%=      5-min Rain = 0
KJTS 250000Z 12011KT 29/18 A2961 RMK A01 T02920175  RH  052%=      5-min Rain = 0
KJTS 250005Z 12011KT 29/18 A2961 RMK A01 T02910175  RH  052%=      5-min Rain = 0
KJTS 250010Z 12010KT 29/18 A296 RMK A01 T02890175  RH  053%=      5-min Rain = 0
KJTS 250015Z 12010KT 29/18 A2961 RMK A01 T02880175  RH  053%=      5-min Rain = 0
KJTS 250020Z 12009KT 29/17 A2961 RMK A01 T02890174  RH  052%=      5-min Rain = 0
KJTS 250025Z 12009KT 29/17 A2961 RMK A01 T02880173  RH  053%=      5-min Rain = 0
KJTS 250030Z 11008KT 29/17 A2961 RMK A01 T02870174  RH  053%=      5-min Rain = 0
KJTS 250035Z 15016G32KT 28/17 A2961 RMK A01 T02820167  RH  052%=      5-min Rain = 0
KJTS 250040Z 16028G38KT 25/17 A2963 RMK A01 T02480174  RH  067%=      5-min Rain = 0
KJTS 250045Z 15027G39KT 22/18 A2967 RMK A01 T02160178  RH  083%=      5-min Rain = 0.15
KJTS 250050Z 17021G34KT 19/16 A2969 RMK A01 T01890159  RH  087%=      5-min Rain = 0.22
KJTS 250055Z 17014G19KT 18/15 A2968 RMK A01 T01760154  RH  091%=      5-min Rain = 0.13
KJTS 250100Z 15008G16KT 18/16 A297 RMK A01 T01780159  RH  093%=      5-min Rain = 0.09
KJTS 250105Z 09014G19KT 18/16 A2969 RMK A01 T01770160  RH  094%=      5-min Rain = 0.1
KJTS 250110Z 02010G16KT 18/16 A2967 RMK A01 T01810155  RH  089%=      5-min Rain = 0.03
KJTS 250115Z 34004G10KT 18/16 A297 RMK A01 T01810160  RH  091%=      5-min Rain = 0
KJTS 250120Z 18005G10KT 18/16 A2971 RMK A01 T01800161  RH  093%=      5-min Rain = 0.01
KJTS 250125Z 31008G14KT 19/16 A297 RMK A01 T01850159  RH  089%=      5-min Rain = 0.01
KJTS 250130Z 31015G27KT 19/16 A2972 RMK A01 T01880162  RH  089%=      5-min Rain = 0
KJTS 250135Z 32027G40KT 18/15 A2971 RMK A01 T01820151  RH  086%=      5-min Rain = 0.01
KJTS 250140Z 32026G34KT 17/14 A2972 RMK A01 T01690142  RH  088%=      5-min Rain = 0
KJTS 250145Z 32023G28KT 17/14 A2973 RMK A01 T01670142  RH  089%=      5-min Rain = 0.02
KJTS 250150Z 30020G27KT 17/14 A2977 RMK A01 T01660143  RH  090%=      5-min Rain = 0.03
KJTS 250155Z 31022G27KT 17/14 A2976 RMK A01 T01660141  RH  089%=      5-min Rain = 0.01
KJTS 250200Z 30017G23KT 17/14 A2977 RMK A01 T01650142  RH  090%=      5-min Rain = 0.01
KJTS 250205Z 31017G26KT 17/14 A2979 RMK A01 T01670141  RH  088%=      5-min Rain = 0
KJTS 250210Z 32016G22KT 16/14 A2979 RMK A01 T01630140  RH  090%=      5-min Rain = 0
KJTS 250215Z 34009G14KT 16/14 A2978 RMK A01 T01620141  RH  091%=      5-min Rain = 0.01
KJTS 250220Z 03009G14KT 16/14 A2979 RMK A01 T01640142  RH  091%=      5-min Rain = 0
KJTS 250225Z 00008KT 16/14 A2979 RMK A01 T01630143  RH  092%=      5-min Rain = 0.01
KJTS 250230Z 35006KT 16/14 A2979 RMK A01 T01610144  RH  094%=      5-min Rain = 0.01
KJTS 250235Z 35008KT 16/14 A2979 RMK A01 T01620144  RH  093%=      5-min Rain = 0.02
KJTS 250240Z 01008KT 16/15 A2979 RMK A01 T01610145  RH  094%=      5-min Rain = 0.01
KJTS 250245Z 01007KT 16/15 A2978 RMK A01 T01600145  RH  095%=      5-min Rain = 0.02
KJTS 250250Z 01008KT 16/15 A2977 RMK A01 T01590145  RH  095%=      5-min Rain = 0.02
KJTS 250255Z 02008KT 16/15 A2976 RMK A01 T01590145  RH  096%=      5-min Rain = 0.01
KJTS 250300Z 02009G14KT 16/15 A2975 RMK A01 T01570145  RH  097%=      5-min Rain = 0.02
KJTS 250305Z 02011G16KT 16/15 A2974 RMK A01 T01570146  RH  097%=      5-min Rain = 0
KJTS 250310Z 02011G16KT 16/15 A2973 RMK A01 T01600147  RH  097%=      5-min Rain = 0.01
KJTS 250315Z 03010G15KT 16/15 A2973 RMK A01 T01620147  RH  095%=      5-min Rain = 0
KJTS 250320Z 04010KT 16/15 A2973 RMK A01 T01620146  RH  094%=      5-min Rain = 0
KJTS 250325Z 07010KT 16/15 A2973 RMK A01 T01630147  RH  094%=      5-min Rain = 0
KJTS 250330Z 08012KT 16/15 A2972 RMK A01 T01620148  RH  095%=      5-min Rain = 0
KJTS 250335Z 07014G20KT 16/15 A2972 RMK A01 T01620148  RH  096%=      5-min Rain = 0
KJTS 250340Z 07018G24KT 16/15 A2971 RMK A01 T01640148  RH  095%=      5-min Rain = 0
KJTS 250345Z 07014G19KT 17/15 A2972 RMK A01 T01650148  RH  094%=      5-min Rain = 0
KJTS 250350Z 07017G22KT 17/15 A2972 RMK A01 T01660148  RH  093%=      5-min Rain = 0
KJTS 250355Z 08017G22KT 17/15 A2972 RMK A01 T01660148  RH  093%=      5-min Rain = 0
KJTS 250400Z 07016G23KT 17/15 A2972 RMK A01 T01660148  RH  093%=      5-min Rain = 0
KJTS 250405Z 07016G22KT 17/15 A2973 RMK A01 T01680145  RH  090%=      5-min Rain = 0
KJTS 250410Z 07017G23KT 17/14 A2972 RMK A01 T01710142  RH  087%=      5-min Rain = 0
KJTS 250415Z 06018G26KT 17/14 A2973 RMK A01 T01740139  RH  083%=      5-min Rain = 0
KJTS 250420Z 07016G25KT 18/14 A2973 RMK A01 T01760137  RH  081%=      5-min Rain = 0
KJTS 250425Z 06014KT 18/14 A2975 RMK A01 T01750138  RH  082%=      5-min Rain = 0
KJTS 250430Z 06015G21KT 18/14 A2975 RMK A01 T01750137  RH  082%=      5-min Rain = 0
KJTS 250435Z 07013G18KT 17/14 A2976 RMK A01 T01740139  RH  083%=      5-min Rain = 0
KJTS 250440Z 07012G18KT 17/14 A2976 RMK A01 T01740139  RH  083%=      5-min Rain = 0
KJTS 250445Z 06010KT 18/14 A2976 RMK A01 T01760138  RH  081%=      5-min Rain = 0
KJTS 250450Z 05007KT 18/14 A2977 RMK A01 T01770138  RH  081%=      5-min Rain = 0
KJTS 250455Z 04007KT 18/14 A2977 RMK A01 T01780136  RH  080%=      5-min Rain = 0

Page generated in 0.0403 seconds.